Currently 64°F in Riverside (Presidential Park), California, USA
64°F
64°F / 64°F
1 mph SW
0.00"
Tuesday, September 25, 2018 12:02 AM PDT

Riverside (Presidential Park), California Weather Summary
Last 36 Hours

Temperature Winds Hourly Humidity Dewpoint
Time Report Norm Report Norm Max Gusts Precip. Rpt. Norm Rpt. Norm Pressure
1,2Tue 12:02 AM  64.2°F  68°F  1 mph SW  1 mph  4 mph  0.00"  81%  60%  58°F  53°F  29.89"
3Tue 12:01 AM  64.1°F  68°F  1 mph SW  1 mph  4 mph  ----  81%  60%  58°F  53°F  29.89"
Tue 12:00 AM  64.1°F  68°F  2 mph SW  1 mph  4 mph  0.00"  81%  60%  58°F  53°F  29.89"
Mon 11:00 PM  64.9°F  70°F  1 mph SW  1 mph  6 mph  0.00"  79%  57%  58°F  53°F  29.89"
Mon 10:00 PM  66.2°F  72°F  2 mph SW  2 mph  5 mph  0.00"  76%  54%  58°F  53°F  29.89"
Mon 09:00 PM  66.8°F  74°F  1 mph W  2 mph  8 mph  0.00"  73%  49%  58°F  53°F  29.88"
Mon 08:00 PM  69.1°F  77°F  3 mph W  3 mph  10 mph  0.00"  68%  44%  58°F  53°F  29.86"
Mon 07:00 PM  72.4°F  79°F  5 mph W  5 mph  12 mph  0.00"  61%  40%  58°F  52°F  29.84"
Mon 06:00 PM  76.5°F  83°F  4 mph W  7 mph  13 mph  0.00"  51%  35%  57°F  51°F  29.82"
Mon 05:00 PM  79.8°F  85°F  9 mph SW  8 mph  14 mph  0.00"  46%  31%  56°F  50°F  29.81"
Mon 04:00 PM  80.4°F  87°F  6 mph W  8 mph  14 mph  0.00"  44%  28%  56°F  49°F  29.81"
Mon 03:00 PM  80.6°F  87°F  6 mph W  7 mph  12 mph  0.00"  44%  29%  56°F  49°F  29.82"
Mon 02:00 PM  79.8°F  86°F  8 mph SW  6 mph  14 mph  0.00"  48%  29%  57°F  49°F  29.84"
Mon 01:00 PM  77.2°F  85°F  2 mph SW  5 mph  9 mph  0.00"  52%  31%  58°F  50°F  29.86"
Mon 12:00 PM  72.7°F  83°F  5 mph SW  4 mph  9 mph  0.00"  61%  35%  58°F  52°F  29.88"
Mon 11:00 AM  68.7°F  80°F  3 mph S  3 mph  8 mph  0.00"  70%  42%  58°F  54°F  29.90"
Mon 10:00 AM  65.2°F  76°F  5 mph W  2 mph  7 mph  0.00"  81%  50%  59°F  55°F  29.91"
Mon 09:00 AM  62.7°F  70°F  3 mph SW  1 mph  6 mph  0.00"  85%  61%  58°F  55°F  29.90"
Mon 08:00 AM  62.1°F  65°F  1 mph NW  1 mph  4 mph  0.00"  86%  69%  58°F  54°F  29.88"
Mon 07:00 AM  61.1°F  63°F  calm  1 mph  2 mph  0.00"  85%  71%  56°F  53°F  29.88"
Mon 06:00 AM  61.4°F  63°F  1 mph SE  1 mph  3 mph  0.00"  82%  70%  56°F  53°F  29.86"
Mon 05:00 AM  61.5°F  64°F  calm  1 mph  2 mph  0.00"  79%  69%  55°F  53°F  29.85"
Mon 04:00 AM  62.0°F  64°F  calm  1 mph  3 mph  0.00"  78%  68%  55°F  53°F  29.84"
Mon 03:00 AM  62.9°F  65°F  calm  1 mph  3 mph  0.00"  77%  66%  55°F  53°F  29.85"
Mon 02:00 AM  64.7°F  66°F  calm  1 mph  5 mph  0.00"  77%  65%  57°F  53°F  29.86"
Mon 01:00 AM  65.8°F  67°F  calm  1 mph  3 mph  0.00"  71%  63%  56°F  53°F  29.86"
Mon 12:00 AM  67.2°F  68°F  calm  1 mph  5 mph  0.00"  70%  61%  57°F  53°F  29.86"
Sun 11:00 PM  68.5°F  70°F  1 mph SW  1 mph  6 mph  0.00"  66%  58%  56°F  54°F  29.85"
Sun 10:00 PM  69.4°F  72°F  3 mph W  2 mph  7 mph  0.00"  66%  55%  57°F  54°F  29.85"
Sun 09:00 PM  71.5°F  74°F  3 mph W  2 mph  8 mph  0.00"  61%  50%  57°F  54°F  29.84"
Sun 08:00 PM  73.8°F  76°F  5 mph W  3 mph  10 mph  0.00"  55%  45%  56°F  53°F  29.82"
Sun 07:00 PM  78.0°F  79°F  2 mph W  5 mph  11 mph  0.00"  48%  41%  56°F  53°F  29.80"
Sun 06:00 PM  82.0°F  83°F  7 mph SW  7 mph  12 mph  0.00"  42%  36%  56°F  52°F  29.79"
Sun 05:00 PM  85.8°F  85°F  7 mph W  8 mph  13 mph  0.00"  34%  32%  53°F  51°F  29.78"
Sun 04:00 PM  86.5°F  87°F  10 mph SW  8 mph  14 mph  0.00"  34%  29%  53°F  50°F  29.79"
Sun 03:00 PM  85.8°F  87°F  8 mph W  7 mph  13 mph  0.00"  34%  29%  54°F  50°F  29.81"
Sun 02:00 PM  84.9°F  86°F  5 mph SW  6 mph  12 mph  0.00"  39%  29%  56°F  50°F  29.84"
Sun 01:00 PM  83.8°F  85°F  5 mph SW  5 mph  10 mph  0.00"  36%  31%  53°F  50°F  29.86"
Sun 12:00 PM  81.4°F  82°F  4 mph SW  4 mph  10 mph  0.00"  39%  37%  53°F  52°F  29.89"

  1. Current weather data. No green row appears if the current weather data is also the high or low for the current day.
  2. High temperature for the current day.
  3. Low temperature for the current day.

The Riverside (Presidential Park), California weather pages are a service of WeatherCurrents.
Copyright ©Tue Sep 25 00:03:42 PDT 2018  WeatherCurrents. All rights reserved. - Submit questions and comments - Privacy Policy

This page automatically refreshes every 10 minutes.